sensor_id;sensor_type;location;lat;lon;timestamp;temperature;humidity
26336;DHT22;14047;50.936;4.654;2022-11-30T00:02:22;8.10;99.90
26336;DHT22;14047;50.936;4.654;2022-11-30T00:04:48;8.20;99.90
26336;DHT22;14047;50.936;4.654;2022-11-30T00:07:14;8.00;99.90
26336;DHT22;14047;50.936;4.654;2022-11-30T00:09:40;8.00;99.90
26336;DHT22;14047;50.936;4.654;2022-11-30T00:12:05;8.10;99.90
26336;DHT22;14047;50.936;4.654;2022-11-30T00:14:31;8.30;99.90
26336;DHT22;14047;50.936;4.654;2022-11-30T00:16:57;8.30;99.90
26336;DHT22;14047;50.936;4.654;2022-11-30T00:19:22;8.30;99.90
26336;DHT22;14047;50.936;4.654;2022-11-30T00:21:48;8.40;99.90
26336;DHT22;14047;50.936;4.654;2022-11-30T00:24:14;8.40;99.90
26336;DHT22;14047;50.936;4.654;2022-11-30T00:26:39;8.40;99.90
26336;DHT22;14047;50.936;4.654;2022-11-30T00:29:05;8.50;99.90
26336;DHT22;14047;50.936;4.654;2022-11-30T00:31:31;8.40;99.90
26336;DHT22;14047;50.936;4.654;2022-11-30T00:33:56;8.20;99.90
26336;DHT22;14047;50.936;4.654;2022-11-30T00:36:22;8.10;99.90
26336;DHT22;14047;50.936;4.654;2022-11-30T00:38:49;8.20;99.90
26336;DHT22;14047;50.936;4.654;2022-11-30T00:41:16;8.30;99.90
26336;DHT22;14047;50.936;4.654;2022-11-30T00:43:42;8.40;99.90
26336;DHT22;14047;50.936;4.654;2022-11-30T00:46:08;8.50;99.90
26336;DHT22;14047;50.936;4.654;2022-11-30T00:48:34;8.60;99.90
26336;DHT22;14047;50.936;4.654;2022-11-30T00:51:03;8.60;99.90
26336;DHT22;14047;50.936;4.654;2022-11-30T00:53:29;8.50;99.90
26336;DHT22;14047;50.936;4.654;2022-11-30T00:55:55;8.30;99.90
26336;DHT22;14047;50.936;4.654;2022-11-30T00:58:21;8.30;99.90
26336;DHT22;14047;50.936;4.654;2022-11-30T01:00:46;8.30;99.90
26336;DHT22;14047;50.936;4.654;2022-11-30T01:03:12;8.40;99.90
26336;DHT22;14047;50.936;4.654;2022-11-30T01:05:38;8.50;99.90
26336;DHT22;14047;50.936;4.654;2022-11-30T01:08:06;8.50;99.90
26336;DHT22;14047;50.936;4.654;2022-11-30T01:10:33;8.50;99.90
26336;DHT22;14047;50.936;4.654;2022-11-30T01:12:59;8.60;99.90
26336;DHT22;14047;50.936;4.654;2022-11-30T01:15:25;8.60;99.90
26336;DHT22;14047;50.936;4.654;2022-11-30T01:17:51;8.30;99.90
26336;DHT22;14047;50.936;4.654;2022-11-30T01:20:17;8.40;99.90
26336;DHT22;14047;50.936;4.654;2022-11-30T01:22:45;8.40;99.90
26336;DHT22;14047;50.936;4.654;2022-11-30T01:25:11;8.40;99.90
26336;DHT22;14047;50.936;4.654;2022-11-30T01:27:37;8.50;99.90
26336;DHT22;14047;50.936;4.654;2022-11-30T01:30:04;8.50;99.90
26336;DHT22;14047;50.936;4.654;2022-11-30T01:32:29;8.50;99.90
26336;DHT22;14047;50.936;4.654;2022-11-30T01:34:55;8.60;99.90
26336;DHT22;14047;50.936;4.654;2022-11-30T01:37:21;8.80;99.90
26336;DHT22;14047;50.936;4.654;2022-11-30T01:39:47;8.90;99.90
26336;DHT22;14047;50.936;4.654;2022-11-30T01:42:18;8.90;99.90
26336;DHT22;14047;50.936;4.654;2022-11-30T01:44:52;9.00;99.90
26336;DHT22;14047;50.936;4.654;2022-11-30T01:47:21;9.10;99.90
26336;DHT22;14047;50.936;4.654;2022-11-30T01:49:56;9.20;99.90
26336;DHT22;14047;50.936;4.654;2022-11-30T01:52:26;9.30;99.90
26336;DHT22;14047;50.936;4.654;2022-11-30T01:55:17;9.20;99.90
26336;DHT22;14047;50.936;4.654;2022-11-30T01:57:46;9.20;99.90
26336;DHT22;14047;50.936;4.654;2022-11-30T02:00:13;9.30;99.90
26336;DHT22;14047;50.936;4.654;2022-11-30T02:02:59;9.30;99.90
26336;DHT22;14047;50.936;4.654;2022-11-30T02:05:26;9.30;99.90
26336;DHT22;14047;50.936;4.654;2022-11-30T02:07:53;9.20;99.90
26336;DHT22;14047;50.936;4.654;2022-11-30T02:10:26;9.10;99.90
26336;DHT22;14047;50.936;4.654;2022-11-30T02:16:15;8.60;99.90
26336;DHT22;14047;50.936;4.654;2022-11-30T02:21:55;8.20;99.90
26336;DHT22;14047;50.936;4.654;2022-11-30T02:24:38;8.20;99.90
26336;DHT22;14047;50.936;4.654;2022-11-30T02:30:02;8.20;99.90
26336;DHT22;14047;50.936;4.654;2022-11-30T02:32:32;8.20;99.90
26336;DHT22;14047;50.936;4.654;2022-11-30T02:35:01;8.10;99.90
26336;DHT22;14047;50.936;4.654;2022-11-30T02:37:27;8.10;99.90
26336;DHT22;14047;50.936;4.654;2022-11-30T02:39:54;8.30;99.90
26336;DHT22;14047;50.936;4.654;2022-11-30T02:42:20;8.30;99.90
26336;DHT22;14047;50.936;4.654;2022-11-30T02:44:50;8.10;99.90
26336;DHT22;14047;50.936;4.654;2022-11-30T02:52:39;8.30;99.90
26336;DHT22;14047;50.936;4.654;2022-11-30T02:55:10;8.30;99.90
26336;DHT22;14047;50.936;4.654;2022-11-30T02:57:38;8.20;99.90
26336;DHT22;14047;50.936;4.654;2022-11-30T03:00:07;8.20;99.90
26336;DHT22;14047;50.936;4.654;2022-11-30T03:02:35;8.00;99.90
26336;DHT22;14047;50.936;4.654;2022-11-30T03:05:03;8.10;99.90
26336;DHT22;14047;50.936;4.654;2022-11-30T03:07:30;8.00;99.90
26336;DHT22;14047;50.936;4.654;2022-11-30T03:09:57;8.00;99.90
26336;DHT22;14047;50.936;4.654;2022-11-30T03:12:23;8.10;99.90
26336;DHT22;14047;50.936;4.654;2022-11-30T03:14:48;7.70;99.90
26336;DHT22;14047;50.936;4.654;2022-11-30T03:17:14;7.60;99.90
26336;DHT22;14047;50.936;4.654;2022-11-30T03:19:39;7.70;99.90
26336;DHT22;14047;50.936;4.654;2022-11-30T03:22:06;7.80;99.90
26336;DHT22;14047;50.936;4.654;2022-11-30T03:24:31;7.80;99.90
26336;DHT22;14047;50.936;4.654;2022-11-30T03:26:57;7.90;99.90
26336;DHT22;14047;50.936;4.654;2022-11-30T03:29:22;8.00;99.90
26336;DHT22;14047;50.936;4.654;2022-11-30T03:31:48;8.20;99.90
26336;DHT22;14047;50.936;4.654;2022-11-30T03:34:14;8.30;99.90
26336;DHT22;14047;50.936;4.654;2022-11-30T03:36:39;8.20;99.90
26336;DHT22;14047;50.936;4.654;2022-11-30T03:39:05;8.20;99.90
26336;DHT22;14047;50.936;4.654;2022-11-30T03:41:31;7.90;99.90
26336;DHT22;14047;50.936;4.654;2022-11-30T03:43:56;7.60;99.90
26336;DHT22;14047;50.936;4.654;2022-11-30T03:46:22;7.70;99.90
26336;DHT22;14047;50.936;4.654;2022-11-30T03:48:48;7.80;99.90
26336;DHT22;14047;50.936;4.654;2022-11-30T03:51:14;8.00;99.90
26336;DHT22;14047;50.936;4.654;2022-11-30T03:53:39;7.90;99.90
26336;DHT22;14047;50.936;4.654;2022-11-30T03:56:07;7.90;99.90
26336;DHT22;14047;50.936;4.654;2022-11-30T03:58:34;7.90;99.90
26336;DHT22;14047;50.936;4.654;2022-11-30T04:01:11;7.60;99.90
26336;DHT22;14047;50.936;4.654;2022-11-30T04:03:41;7.70;99.90
26336;DHT22;14047;50.936;4.654;2022-11-30T04:06:08;7.50;99.90
26336;DHT22;14047;50.936;4.654;2022-11-30T04:08:34;7.60;99.90
26336;DHT22;14047;50.936;4.654;2022-11-30T04:11:01;7.70;99.90
26336;DHT22;14047;50.936;4.654;2022-11-30T04:13:28;7.60;99.90
26336;DHT22;14047;50.936;4.654;2022-11-30T04:15:54;7.80;99.90
26336;DHT22;14047;50.936;4.654;2022-11-30T04:18:22;7.70;99.90
26336;DHT22;14047;50.936;4.654;2022-11-30T04:20:53;7.90;99.90
26336;DHT22;14047;50.936;4.654;2022-11-30T04:23:19;8.10;99.90
26336;DHT22;14047;50.936;4.654;2022-11-30T04:25:45;8.10;99.90
26336;DHT22;14047;50.936;4.654;2022-11-30T04:28:12;8.20;99.90
26336;DHT22;14047;50.936;4.654;2022-11-30T04:30:38;8.30;99.90
26336;DHT22;14047;50.936;4.654;2022-11-30T04:33:04;8.20;99.90
26336;DHT22;14047;50.936;4.654;2022-11-30T04:35:30;8.20;99.90
26336;DHT22;14047;50.936;4.654;2022-11-30T04:37:57;8.30;99.90
26336;DHT22;14047;50.936;4.654;2022-11-30T04:40:23;8.30;99.90
26336;DHT22;14047;50.936;4.654;2022-11-30T04:42:49;8.30;99.90
26336;DHT22;14047;50.936;4.654;2022-11-30T04:45:14;8.40;99.90
26336;DHT22;14047;50.936;4.654;2022-11-30T04:47:40;8.40;99.90
26336;DHT22;14047;50.936;4.654;2022-11-30T04:50:07;8.50;99.90
26336;DHT22;14047;50.936;4.654;2022-11-30T04:52:33;8.50;99.90
26336;DHT22;14047;50.936;4.654;2022-11-30T04:54:59;8.70;99.90
26336;DHT22;14047;50.936;4.654;2022-11-30T04:57:25;8.70;99.90
26336;DHT22;14047;50.936;4.654;2022-11-30T04:59:51;8.80;99.90
26336;DHT22;14047;50.936;4.654;2022-11-30T05:02:16;8.70;99.90
26336;DHT22;14047;50.936;4.654;2022-11-30T05:04:42;8.60;99.90
26336;DHT22;14047;50.936;4.654;2022-11-30T05:07:08;8.60;99.90
26336;DHT22;14047;50.936;4.654;2022-11-30T05:09:33;8.60;99.90
26336;DHT22;14047;50.936;4.654;2022-11-30T05:11:59;8.50;99.90
26336;DHT22;14047;50.936;4.654;2022-11-30T05:14:25;8.60;99.90
26336;DHT22;14047;50.936;4.654;2022-11-30T05:16:50;8.50;99.90
26336;DHT22;14047;50.936;4.654;2022-11-30T05:19:16;8.50;99.90
26336;DHT22;14047;50.936;4.654;2022-11-30T05:21:43;8.50;99.90
26336;DHT22;14047;50.936;4.654;2022-11-30T05:24:09;8.50;99.90
26336;DHT22;14047;50.936;4.654;2022-11-30T05:26:38;8.50;99.90
26336;DHT22;14047;50.936;4.654;2022-11-30T05:29:05;8.30;99.90
26336;DHT22;14047;50.936;4.654;2022-11-30T05:31:31;8.30;99.90
26336;DHT22;14047;50.936;4.654;2022-11-30T05:33:57;8.30;99.90
26336;DHT22;14047;50.936;4.654;2022-11-30T05:36:22;8.40;99.90
26336;DHT22;14047;50.936;4.654;2022-11-30T05:38:48;8.30;99.90
26336;DHT22;14047;50.936;4.654;2022-11-30T05:41:14;8.10;99.90
26336;DHT22;14047;50.936;4.654;2022-11-30T05:43:39;8.20;99.90
26336;DHT22;14047;50.936;4.654;2022-11-30T05:46:07;8.30;99.90
26336;DHT22;14047;50.936;4.654;2022-11-30T05:48:33;8.20;99.90
26336;DHT22;14047;50.936;4.654;2022-11-30T05:51:11;8.00;99.90
26336;DHT22;14047;50.936;4.654;2022-11-30T05:53:37;7.50;99.90
26336;DHT22;14047;50.936;4.654;2022-11-30T05:56:08;7.60;99.90
26336;DHT22;14047;50.936;4.654;2022-11-30T05:58:35;7.60;99.90
26336;DHT22;14047;50.936;4.654;2022-11-30T06:01:00;7.70;99.90
26336;DHT22;14047;50.936;4.654;2022-11-30T06:03:31;7.70;99.90
26336;DHT22;14047;50.936;4.654;2022-11-30T06:05:57;7.70;99.90
26336;DHT22;14047;50.936;4.654;2022-11-30T06:08:23;7.70;99.90
26336;DHT22;14047;50.936;4.654;2022-11-30T06:10:48;7.50;99.90
26336;DHT22;14047;50.936;4.654;2022-11-30T06:13:14;7.60;99.90
26336;DHT22;14047;50.936;4.654;2022-11-30T06:15:40;7.70;99.90
26336;DHT22;14047;50.936;4.654;2022-11-30T06:18:07;7.90;99.90
26336;DHT22;14047;50.936;4.654;2022-11-30T06:20:33;8.00;99.90
26336;DHT22;14047;50.936;4.654;2022-11-30T06:22:59;7.70;99.90
26336;DHT22;14047;50.936;4.654;2022-11-30T06:25:25;7.60;99.90
26336;DHT22;14047;50.936;4.654;2022-11-30T06:27:51;7.70;99.90
26336;DHT22;14047;50.936;4.654;2022-11-30T06:30:17;7.80;99.90
26336;DHT22;14047;50.936;4.654;2022-11-30T06:32:45;7.90;99.90
26336;DHT22;14047;50.936;4.654;2022-11-30T06:35:10;8.00;99.90
26336;DHT22;14047;50.936;4.654;2022-11-30T06:37:36;8.00;99.90
26336;DHT22;14047;50.936;4.654;2022-11-30T06:40:02;8.10;99.90
26336;DHT22;14047;50.936;4.654;2022-11-30T06:42:29;8.10;99.90
26336;DHT22;14047;50.936;4.654;2022-11-30T06:44:55;8.20;99.90
26336;DHT22;14047;50.936;4.654;2022-11-30T06:47:20;8.20;99.90
26336;DHT22;14047;50.936;4.654;2022-11-30T06:49:46;8.30;99.90
26336;DHT22;14047;50.936;4.654;2022-11-30T06:52:12;8.30;99.90
26336;DHT22;14047;50.936;4.654;2022-11-30T06:54:37;8.30;99.90
26336;DHT22;14047;50.936;4.654;2022-11-30T06:57:03;8.10;99.90
26336;DHT22;14047;50.936;4.654;2022-11-30T06:59:29;7.80;99.90
26336;DHT22;14047;50.936;4.654;2022-11-30T07:01:54;7.80;99.90
26336;DHT22;14047;50.936;4.654;2022-11-30T07:04:20;7.90;99.90
26336;DHT22;14047;50.936;4.654;2022-11-30T07:06:46;8.00;99.90
26336;DHT22;14047;50.936;4.654;2022-11-30T07:09:12;8.10;99.90
26336;DHT22;14047;50.936;4.654;2022-11-30T07:11:38;8.10;99.90
26336;DHT22;14047;50.936;4.654;2022-11-30T07:14:03;8.10;99.90
26336;DHT22;14047;50.936;4.654;2022-11-30T07:16:29;8.10;99.90
26336;DHT22;14047;50.936;4.654;2022-11-30T07:18:56;7.90;99.90
26336;DHT22;14047;50.936;4.654;2022-11-30T07:21:21;8.00;99.90
26336;DHT22;14047;50.936;4.654;2022-11-30T07:23:47;7.90;99.90
26336;DHT22;14047;50.936;4.654;2022-11-30T07:26:32;7.80;99.90
26336;DHT22;14047;50.936;4.654;2022-11-30T07:28:57;7.80;99.90
26336;DHT22;14047;50.936;4.654;2022-11-30T07:33:50;8.00;99.90
26336;DHT22;14047;50.936;4.654;2022-11-30T07:36:17;8.00;99.90
26336;DHT22;14047;50.936;4.654;2022-11-30T07:38:44;7.90;99.90
26336;DHT22;14047;50.936;4.654;2022-11-30T07:41:10;8.00;99.90
26336;DHT22;14047;50.936;4.654;2022-11-30T07:43:36;8.10;99.90
26336;DHT22;14047;50.936;4.654;2022-11-30T07:46:02;8.10;99.90
26336;DHT22;14047;50.936;4.654;2022-11-30T07:48:28;8.00;99.90
26336;DHT22;14047;50.936;4.654;2022-11-30T07:51:00;7.70;99.90
26336;DHT22;14047;50.936;4.654;2022-11-30T07:53:25;7.50;99.90
26336;DHT22;14047;50.936;4.654;2022-11-30T07:55:51;7.60;99.90
26336;DHT22;14047;50.936;4.654;2022-11-30T07:58:16;7.50;99.90
26336;DHT22;14047;50.936;4.654;2022-11-30T08:00:42;7.50;99.90
26336;DHT22;14047;50.936;4.654;2022-11-30T08:03:08;7.40;99.90
26336;DHT22;14047;50.936;4.654;2022-11-30T08:05:33;7.40;99.90
26336;DHT22;14047;50.936;4.654;2022-11-30T08:07:59;7.50;99.90
26336;DHT22;14047;50.936;4.654;2022-11-30T08:10:25;7.60;99.90
26336;DHT22;14047;50.936;4.654;2022-11-30T08:12:50;7.70;99.90
26336;DHT22;14047;50.936;4.654;2022-11-30T08:15:16;7.80;99.90
26336;DHT22;14047;50.936;4.654;2022-11-30T08:17:42;7.90;99.90
26336;DHT22;14047;50.936;4.654;2022-11-30T08:20:08;8.00;99.90
26336;DHT22;14047;50.936;4.654;2022-11-30T08:22:34;8.00;99.90
26336;DHT22;14047;50.936;4.654;2022-11-30T08:25:00;7.50;99.90
26336;DHT22;14047;50.936;4.654;2022-11-30T08:27:26;7.30;99.90
26336;DHT22;14047;50.936;4.654;2022-11-30T08:29:52;7.00;99.90
26336;DHT22;14047;50.936;4.654;2022-11-30T08:32:17;7.00;99.90
26336;DHT22;14047;50.936;4.654;2022-11-30T08:34:43;7.20;99.90
26336;DHT22;14047;50.936;4.654;2022-11-30T08:37:09;7.30;99.90
26336;DHT22;14047;50.936;4.654;2022-11-30T08:39:34;7.50;99.90
26336;DHT22;14047;50.936;4.654;2022-11-30T08:42:01;7.70;99.90
26336;DHT22;14047;50.936;4.654;2022-11-30T08:44:27;7.70;99.90
26336;DHT22;14047;50.936;4.654;2022-11-30T08:46:53;7.80;99.90
26336;DHT22;14047;50.936;4.654;2022-11-30T08:49:19;7.80;99.90
26336;DHT22;14047;50.936;4.654;2022-11-30T08:51:46;7.70;99.90
26336;DHT22;14047;50.936;4.654;2022-11-30T08:54:12;7.50;99.90
26336;DHT22;14047;50.936;4.654;2022-11-30T08:56:38;7.70;99.90
26336;DHT22;14047;50.936;4.654;2022-11-30T08:59:03;7.70;99.90
26336;DHT22;14047;50.936;4.654;2022-11-30T09:01:29;7.80;99.90
26336;DHT22;14047;50.936;4.654;2022-11-30T09:03:55;7.30;99.90
26336;DHT22;14047;50.936;4.654;2022-11-30T09:06:28;7.10;99.90
26336;DHT22;14047;50.936;4.654;2022-11-30T09:08:56;6.90;99.90
26336;DHT22;14047;50.936;4.654;2022-11-30T09:11:26;7.00;99.90
26336;DHT22;14047;50.936;4.654;2022-11-30T09:13:54;7.40;99.90
26336;DHT22;14047;50.936;4.654;2022-11-30T09:16:20;7.60;99.90
26336;DHT22;14047;50.936;4.654;2022-11-30T09:18:47;7.80;99.90
26336;DHT22;14047;50.936;4.654;2022-11-30T09:21:14;8.10;99.90
26336;DHT22;14047;50.936;4.654;2022-11-30T09:23:40;8.20;99.90
26336;DHT22;14047;50.936;4.654;2022-11-30T09:26:09;8.40;99.90
26336;DHT22;14047;50.936;4.654;2022-11-30T09:28:36;8.50;99.90
26336;DHT22;14047;50.936;4.654;2022-11-30T09:31:14;8.70;99.90
26336;DHT22;14047;50.936;4.654;2022-11-30T09:33:43;9.00;99.90
26336;DHT22;14047;50.936;4.654;2022-11-30T09:36:11;9.10;99.90
26336;DHT22;14047;50.936;4.654;2022-11-30T09:38:37;8.90;99.90
26336;DHT22;14047;50.936;4.654;2022-11-30T09:46:49;8.70;99.90
26336;DHT22;14047;50.936;4.654;2022-11-30T09:49:25;8.80;99.90
26336;DHT22;14047;50.936;4.654;2022-11-30T09:51:54;8.90;99.90
26336;DHT22;14047;50.936;4.654;2022-11-30T09:54:29;9.00;99.90
26336;DHT22;14047;50.936;4.654;2022-11-30T09:59:52;9.20;99.90
26336;DHT22;14047;50.936;4.654;2022-11-30T10:02:19;9.20;99.90
26336;DHT22;14047;50.936;4.654;2022-11-30T10:04:46;9.10;99.90
26336;DHT22;14047;50.936;4.654;2022-11-30T10:12:10;9.20;99.90
26336;DHT22;14047;50.936;4.654;2022-11-30T10:17:55;9.20;99.90
26336;DHT22;14047;50.936;4.654;2022-11-30T10:20:46;9.20;99.90
26336;DHT22;14047;50.936;4.654;2022-11-30T10:26:31;9.20;99.90
26336;DHT22;14047;50.936;4.654;2022-11-30T10:29:23;9.10;99.90
26336;DHT22;14047;50.936;4.654;2022-11-30T10:31:54;9.10;99.90
26336;DHT22;14047;50.936;4.654;2022-11-30T10:34:33;8.90;99.90
26336;DHT22;14047;50.936;4.654;2022-11-30T10:39:36;9.00;99.90
26336;DHT22;14047;50.936;4.654;2022-11-30T10:42:11;8.90;99.90
26336;DHT22;14047;50.936;4.654;2022-11-30T10:44:42;8.50;99.90
26336;DHT22;14047;50.936;4.654;2022-11-30T10:47:21;8.50;99.90
26336;DHT22;14047;50.936;4.654;2022-11-30T10:49:50;8.60;99.90
26336;DHT22;14047;50.936;4.654;2022-11-30T10:52:22;8.30;99.90
26336;DHT22;14047;50.936;4.654;2022-11-30T10:54:52;8.60;99.90
26336;DHT22;14047;50.936;4.654;2022-11-30T10:57:20;8.90;99.90
26336;DHT22;14047;50.936;4.654;2022-11-30T10:59:53;8.90;99.90
26336;DHT22;14047;50.936;4.654;2022-11-30T11:02:41;8.90;99.90
26336;DHT22;14047;50.936;4.654;2022-11-30T11:05:29;9.00;99.90
26336;DHT22;14047;50.936;4.654;2022-11-30T11:07:56;8.80;99.90
26336;DHT22;14047;50.936;4.654;2022-11-30T11:10:47;8.70;99.90
26336;DHT22;14047;50.936;4.654;2022-11-30T11:15:56;8.10;99.90
26336;DHT22;14047;50.936;4.654;2022-11-30T11:18:26;8.30;99.90
26336;DHT22;14047;50.936;4.654;2022-11-30T11:21:15;8.60;99.90
26336;DHT22;14047;50.936;4.654;2022-11-30T11:23:42;8.80;99.90
26336;DHT22;14047;50.936;4.654;2022-11-30T11:26:26;9.20;99.90
26336;DHT22;14047;50.936;4.654;2022-11-30T11:28:53;8.40;99.90
26336;DHT22;14047;50.936;4.654;2022-11-30T11:31:34;7.90;99.90
26336;DHT22;14047;50.936;4.654;2022-11-30T11:34:00;7.80;99.90
26336;DHT22;14047;50.936;4.654;2022-11-30T11:36:32;7.70;99.90
26336;DHT22;14047;50.936;4.654;2022-11-30T11:39:01;8.00;99.90
26336;DHT22;14047;50.936;4.654;2022-11-30T11:41:33;7.90;99.90
26336;DHT22;14047;50.936;4.654;2022-11-30T11:46:51;8.30;99.90
26336;DHT22;14047;50.936;4.654;2022-11-30T11:49:21;8.50;99.90
26336;DHT22;14047;50.936;4.654;2022-11-30T11:52:19;8.80;99.90
26336;DHT22;14047;50.936;4.654;2022-11-30T11:54:52;8.50;99.90
26336;DHT22;14047;50.936;4.654;2022-11-30T11:57:21;8.30;99.90
26336;DHT22;14047;50.936;4.654;2022-11-30T11:59:58;8.50;99.90
26336;DHT22;14047;50.936;4.654;2022-11-30T12:02:40;8.60;99.90
26336;DHT22;14047;50.936;4.654;2022-11-30T12:13:12;9.90;99.90
26336;DHT22;14047;50.936;4.654;2022-11-30T12:21:12;10.60;99.90
26336;DHT22;14047;50.936;4.654;2022-11-30T12:23:58;10.70;99.90
26336;DHT22;14047;50.936;4.654;2022-11-30T12:26:39;10.30;99.90
26336;DHT22;14047;50.936;4.654;2022-11-30T12:50:36;10.60;99.90
26336;DHT22;14047;50.936;4.654;2022-11-30T12:58:40;10.30;99.90
26336;DHT22;14047;50.936;4.654;2022-11-30T13:06:30;11.20;99.90
26336;DHT22;14047;50.936;4.654;2022-11-30T13:11:35;10.60;99.90
26336;DHT22;14047;50.936;4.654;2022-11-30T13:14:02;10.50;99.90
26336;DHT22;14047;50.936;4.654;2022-11-30T13:16:30;10.30;99.90
26336;DHT22;14047;50.936;4.654;2022-11-30T13:19:07;10.00;99.90
26336;DHT22;14047;50.936;4.654;2022-11-30T13:21:48;10.20;99.90
26336;DHT22;14047;50.936;4.654;2022-11-30T13:24:42;10.60;99.90
26336;DHT22;14047;50.936;4.654;2022-11-30T13:27:24;10.90;99.90
26336;DHT22;14047;50.936;4.654;2022-11-30T13:32:22;11.10;99.90
26336;DHT22;14047;50.936;4.654;2022-11-30T13:34:48;11.20;99.90
26336;DHT22;14047;50.936;4.654;2022-11-30T13:37:21;11.30;99.90
26336;DHT22;14047;50.936;4.654;2022-11-30T13:39:55;11.30;99.90
26336;DHT22;14047;50.936;4.654;2022-11-30T13:44:49;11.10;99.90
26336;DHT22;14047;50.936;4.654;2022-11-30T13:47:31;10.50;99.90
26336;DHT22;14047;50.936;4.654;2022-11-30T13:50:07;10.30;99.90
26336;DHT22;14047;50.936;4.654;2022-11-30T13:58:17;9.90;99.90
26336;DHT22;14047;50.936;4.654;2022-11-30T14:03:40;9.70;99.90
26336;DHT22;14047;50.936;4.654;2022-11-30T14:06:46;10.00;99.90
26336;DHT22;14047;50.936;4.654;2022-11-30T14:12:43;10.30;99.90
26336;DHT22;14047;50.936;4.654;2022-11-30T14:20:40;9.80;99.90
26336;DHT22;14047;50.936;4.654;2022-11-30T14:23:16;9.50;99.90
26336;DHT22;14047;50.936;4.654;2022-11-30T14:25:52;9.60;99.90
26336;DHT22;14047;50.936;4.654;2022-11-30T14:28:22;9.30;99.90
26336;DHT22;14047;50.936;4.654;2022-11-30T14:30:48;9.20;99.90
26336;DHT22;14047;50.936;4.654;2022-11-30T14:33:18;9.40;99.90
26336;DHT22;14047;50.936;4.654;2022-11-30T14:35:53;9.60;99.90
26336;DHT22;14047;50.936;4.654;2022-11-30T14:38:30;9.80;99.90
26336;DHT22;14047;50.936;4.654;2022-11-30T14:40:56;9.90;99.90
26336;DHT22;14047;50.936;4.654;2022-11-30T14:43:21;10.00;99.90
26336;DHT22;14047;50.936;4.654;2022-11-30T14:46:02;10.10;99.90
26336;DHT22;14047;50.936;4.654;2022-11-30T14:48:28;10.10;99.90
26336;DHT22;14047;50.936;4.654;2022-11-30T14:51:02;10.10;99.90
26336;DHT22;14047;50.936;4.654;2022-11-30T14:53:39;10.10;99.90
26336;DHT22;14047;50.936;4.654;2022-11-30T14:56:32;10.00;99.90
26336;DHT22;14047;50.936;4.654;2022-11-30T14:59:22;10.10;99.90
26336;DHT22;14047;50.936;4.654;2022-11-30T15:02:03;10.10;99.90
26336;DHT22;14047;50.936;4.654;2022-11-30T15:04:30;10.10;99.90
26336;DHT22;14047;50.936;4.654;2022-11-30T15:06:56;10.10;99.90
26336;DHT22;14047;50.936;4.654;2022-11-30T15:09:29;10.00;99.90
26336;DHT22;14047;50.936;4.654;2022-11-30T15:11:56;10.00;99.90
26336;DHT22;14047;50.936;4.654;2022-11-30T15:14:22;9.90;99.90
26336;DHT22;14047;50.936;4.654;2022-11-30T15:16:55;10.00;99.90
26336;DHT22;14047;50.936;4.654;2022-11-30T15:21:51;9.70;99.90
26336;DHT22;14047;50.936;4.654;2022-11-30T15:24:18;9.70;99.90
26336;DHT22;14047;50.936;4.654;2022-11-30T15:26:57;9.60;99.90
26336;DHT22;14047;50.936;4.654;2022-11-30T15:31:54;9.50;99.90
26336;DHT22;14047;50.936;4.654;2022-11-30T15:34:44;9.50;99.90
26336;DHT22;14047;50.936;4.654;2022-11-30T15:37:12;9.40;99.90
26336;DHT22;14047;50.936;4.654;2022-11-30T15:39:38;9.40;99.90
26336;DHT22;14047;50.936;4.654;2022-11-30T15:42:05;9.40;99.90
26336;DHT22;14047;50.936;4.654;2022-11-30T15:44:44;9.40;99.90
26336;DHT22;14047;50.936;4.654;2022-11-30T15:47:31;9.40;99.90
26336;DHT22;14047;50.936;4.654;2022-11-30T15:49:59;9.40;99.90
26336;DHT22;14047;50.936;4.654;2022-11-30T15:52:29;9.50;99.90
26336;DHT22;14047;50.936;4.654;2022-11-30T15:54:57;9.40;99.90
26336;DHT22;14047;50.936;4.654;2022-11-30T15:57:26;9.30;99.90
26336;DHT22;14047;50.936;4.654;2022-11-30T16:02:38;9.20;99.90
26336;DHT22;14047;50.936;4.654;2022-11-30T16:07:54;9.10;99.90
26336;DHT22;14047;50.936;4.654;2022-11-30T16:10:40;9.10;99.90
26336;DHT22;14047;50.936;4.654;2022-11-30T16:13:06;9.10;99.90
26336;DHT22;14047;50.936;4.654;2022-11-30T16:15:33;9.10;99.90
26336;DHT22;14047;50.936;4.654;2022-11-30T16:20:41;9.00;99.90
26336;DHT22;14047;50.936;4.654;2022-11-30T16:23:12;9.10;99.90
26336;DHT22;14047;50.936;4.654;2022-11-30T16:25:40;9.00;99.90
26336;DHT22;14047;50.936;4.654;2022-11-30T16:28:10;9.00;99.90
26336;DHT22;14047;50.936;4.654;2022-11-30T16:30:37;9.10;99.90
26336;DHT22;14047;50.936;4.654;2022-11-30T16:33:03;9.20;99.90
26336;DHT22;14047;50.936;4.654;2022-11-30T16:35:46;9.30;99.90
26336;DHT22;14047;50.936;4.654;2022-11-30T16:38:12;9.30;99.90
26336;DHT22;14047;50.936;4.654;2022-11-30T16:40:38;9.40;99.90
26336;DHT22;14047;50.936;4.654;2022-11-30T16:43:04;9.40;99.90
26336;DHT22;14047;50.936;4.654;2022-11-30T16:45:35;9.40;99.90
26336;DHT22;14047;50.936;4.654;2022-11-30T16:48:01;9.40;99.90
26336;DHT22;14047;50.936;4.654;2022-11-30T16:50:27;9.50;99.90
26336;DHT22;14047;50.936;4.654;2022-11-30T16:52:52;9.60;99.90
26336;DHT22;14047;50.936;4.654;2022-11-30T16:55:20;9.70;99.90
26336;DHT22;14047;50.936;4.654;2022-11-30T16:57:47;9.70;99.90
26336;DHT22;14047;50.936;4.654;2022-11-30T17:00:16;9.80;99.90
26336;DHT22;14047;50.936;4.654;2022-11-30T17:02:47;9.80;99.90
26336;DHT22;14047;50.936;4.654;2022-11-30T17:05:14;9.90;99.90
26336;DHT22;14047;50.936;4.654;2022-11-30T17:07:40;9.80;99.90
26336;DHT22;14047;50.936;4.654;2022-11-30T17:10:06;9.90;99.90
26336;DHT22;14047;50.936;4.654;2022-11-30T17:12:33;9.90;99.90
26336;DHT22;14047;50.936;4.654;2022-11-30T17:15:00;9.80;99.90
26336;DHT22;14047;50.936;4.654;2022-11-30T17:17:26;9.80;99.90
26336;DHT22;14047;50.936;4.654;2022-11-30T17:19:52;9.70;99.90
26336;DHT22;14047;50.936;4.654;2022-11-30T17:22:18;9.60;99.90
26336;DHT22;14047;50.936;4.654;2022-11-30T17:24:44;9.50;99.90
26336;DHT22;14047;50.936;4.654;2022-11-30T17:27:10;9.40;99.90
26336;DHT22;14047;50.936;4.654;2022-11-30T17:29:37;9.20;99.90
26336;DHT22;14047;50.936;4.654;2022-11-30T17:32:04;9.10;99.90
26336;DHT22;14047;50.936;4.654;2022-11-30T17:34:29;9.00;99.90
26336;DHT22;14047;50.936;4.654;2022-11-30T17:36:55;8.80;99.90
26336;DHT22;14047;50.936;4.654;2022-11-30T17:39:22;8.60;99.90
26336;DHT22;14047;50.936;4.654;2022-11-30T17:41:48;8.60;99.90
26336;DHT22;14047;50.936;4.654;2022-11-30T17:44:14;8.50;99.90
26336;DHT22;14047;50.936;4.654;2022-11-30T17:46:39;8.50;99.90
26336;DHT22;14047;50.936;4.654;2022-11-30T17:49:05;8.50;99.90
26336;DHT22;14047;50.936;4.654;2022-11-30T17:51:31;8.40;99.90
26336;DHT22;14047;50.936;4.654;2022-11-30T17:53:57;8.40;99.90
26336;DHT22;14047;50.936;4.654;2022-11-30T17:56:23;8.40;99.90
26336;DHT22;14047;50.936;4.654;2022-11-30T17:58:48;8.40;99.90
26336;DHT22;14047;50.936;4.654;2022-11-30T18:03:42;8.40;99.90
26336;DHT22;14047;50.936;4.654;2022-11-30T18:06:08;8.30;99.90
26336;DHT22;14047;50.936;4.654;2022-11-30T18:08:33;8.40;99.90